createdAt,value
2023-05-23T00:00:45.796Z,7.00
2023-05-23T00:05:49.419Z,7.13
2023-05-23T00:10:54.454Z,6.97
2023-05-23T00:15:58.113Z,6.40
2023-05-23T00:21:02.561Z,6.68
2023-05-23T00:26:07.534Z,6.75
2023-05-23T00:31:12.584Z,7.18
2023-05-23T00:36:16.185Z,7.07
2023-05-23T00:41:21.372Z,7.38
2023-05-23T00:46:24.930Z,7.63
2023-05-23T00:51:29.322Z,7.53
2023-05-23T00:56:34.253Z,7.88
2023-05-23T01:01:38.246Z,7.93
2023-05-23T01:06:41.985Z,7.18
2023-05-23T01:11:54.180Z,7.35
2023-05-23T01:17:02.778Z,7.22
2023-05-23T01:22:16.327Z,8.02
2023-05-23T01:27:30.173Z,7.78
2023-05-23T01:32:35.949Z,7.93
2023-05-23T01:37:39.490Z,7.55
2023-05-23T01:42:43.193Z,7.80
2023-05-23T01:47:52.284Z,7.47
2023-05-23T01:52:57.084Z,7.72
2023-05-23T01:58:02.022Z,6.88
2023-05-23T02:03:07.460Z,6.68
2023-05-23T02:08:11.173Z,7.53
2023-05-23T02:13:14.727Z,8.20
2023-05-23T02:18:19.863Z,7.75
2023-05-23T02:23:43.290Z,8.43
2023-05-23T02:28:46.765Z,7.65
2023-05-23T02:33:51.833Z,7.22
2023-05-23T02:38:55.395Z,7.72
2023-05-23T02:43:59.026Z,7.30
2023-05-23T02:49:03.915Z,7.07
2023-05-23T02:54:07.588Z,8.32
2023-05-23T02:59:12.427Z,7.43
2023-05-23T03:04:18.504Z,6.85
2023-05-23T03:09:22.260Z,6.10
2023-05-23T03:14:26.124Z,6.65
2023-05-23T03:19:32.110Z,6.70
2023-05-23T03:24:36.507Z,6.22
2023-05-23T03:29:40.043Z,6.05
2023-05-23T03:34:45.004Z,6.63
2023-05-23T03:39:48.526Z,7.20
2023-05-23T03:44:52.154Z,6.53
2023-05-23T03:49:57.166Z,7.33
2023-05-23T03:55:00.673Z,7.13
2023-05-23T04:00:06.320Z,7.87
2023-05-23T04:05:11.827Z,7.07
2023-05-23T04:10:15.466Z,6.93
2023-05-23T04:15:21.755Z,7.20
2023-05-23T04:20:26.879Z,7.00
2023-05-23T04:25:30.456Z,6.60
2023-05-23T04:30:34.264Z,7.00
2023-05-23T04:35:41.147Z,7.63
2023-05-23T04:40:45.037Z,6.90
2023-05-23T04:45:50.096Z,7.63
2023-05-23T04:50:56.324Z,7.10
2023-05-23T04:55:59.813Z,6.15
2023-05-23T05:01:03.513Z,7.20
2023-05-23T05:06:09.096Z,7.87
2023-05-23T05:11:12.736Z,7.95
2023-05-23T05:16:16.363Z,7.37
2023-05-23T05:21:21.315Z,8.63
2023-05-23T05:26:25.098Z,8.25
2023-05-23T05:31:29.790Z,9.00
2023-05-23T05:36:34.992Z,8.45
2023-05-23T05:41:38.807Z,9.13
2023-05-23T05:46:42.555Z,9.10
2023-05-23T05:51:47.735Z,8.48
2023-05-23T05:56:51.324Z,8.52
2023-05-23T06:01:55.043Z,8.45
2023-05-23T06:07:00.177Z,8.30
2023-05-23T06:12:03.736Z,8.30
2023-05-23T06:17:07.236Z,8.02
2023-05-23T06:22:12.233Z,8.05
2023-05-23T06:27:15.777Z,7.97
2023-05-23T06:32:19.313Z,8.20
2023-05-23T06:37:24.268Z,7.25
2023-05-23T06:42:28.987Z,8.05
2023-05-23T06:47:32.562Z,7.22
2023-05-23T06:52:37.542Z,7.82
2023-05-23T06:57:41.154Z,6.78
2023-05-23T07:02:45.723Z,7.18
2023-05-23T07:07:50.877Z,7.10
2023-05-23T07:12:54.439Z,6.88
2023-05-23T07:17:58.025Z,6.15
2023-05-23T07:23:02.974Z,5.50
2023-05-23T07:28:06.592Z,5.10
2023-05-23T07:33:10.188Z,4.45
2023-05-23T07:38:15.241Z,5.07
2023-05-23T07:43:18.807Z,4.90
2023-05-23T07:48:22.383Z,5.20
2023-05-23T07:53:27.376Z,5.22
2023-05-23T07:58:30.917Z,5.18
2023-05-23T08:08:39.106Z,5.33
2023-05-23T08:13:42.771Z,4.97
2023-05-23T08:23:51.089Z,5.10
2023-05-23T08:28:54.861Z,5.13
2023-05-23T08:39:04.679Z,5.22
2023-05-23T08:44:08.270Z,4.90
2023-05-23T08:49:14.483Z,4.70
2023-05-23T08:54:20.019Z,4.35
2023-05-23T08:59:24.093Z,4.32
2023-05-23T09:04:29.326Z,4.10
2023-05-23T09:09:34.475Z,4.57
2023-05-23T09:14:37.982Z,3.90
2023-05-23T09:19:43.359Z,4.10
2023-05-23T09:24:48.426Z,3.80
2023-05-23T09:29:52.173Z,3.80
2023-05-23T09:40:10.550Z,4.07
2023-05-23T09:45:14.829Z,3.75
2023-05-23T09:50:18.633Z,4.13
2023-05-23T09:55:23.626Z,4.10
2023-05-23T10:00:28.760Z,3.40
2023-05-23T10:05:41.708Z,3.65
2023-05-23T10:11:32.800Z,3.15
2023-05-23T10:16:45.689Z,3.47
2023-05-23T10:21:54.659Z,3.03
2023-05-23T10:26:59.627Z,2.70
2023-05-23T10:32:06.758Z,2.97
2023-05-23T10:37:18.421Z,3.45
2023-05-23T10:42:29.689Z,3.30
2023-05-23T10:47:36.387Z,3.20
2023-05-23T10:52:41.756Z,2.80
2023-05-23T10:57:45.963Z,2.90
2023-05-23T11:02:56.671Z,3.00
2023-05-23T11:08:10.845Z,3.63
2023-05-23T11:18:29.283Z,4.00
2023-05-23T11:23:42.518Z,3.85
2023-05-23T11:28:58.071Z,4.07
2023-05-23T11:34:03.656Z,4.38
2023-05-23T11:39:07.222Z,5.05
2023-05-23T11:44:14.156Z,5.60
2023-05-23T11:49:19.129Z,5.35
2023-05-23T11:54:24.842Z,5.78
2023-05-23T11:59:28.696Z,6.03
2023-05-23T12:04:35.722Z,6.65
2023-05-23T12:09:46.688Z,6.75
2023-05-23T12:14:50.255Z,7.72
2023-05-23T12:19:55.891Z,7.67
2023-05-23T12:24:59.507Z,8.65
2023-05-23T12:30:07.801Z,9.68
2023-05-23T12:35:14.567Z,10.07
2023-05-23T12:40:20.611Z,9.35
2023-05-23T12:45:25.310Z,11.15
2023-05-23T12:50:30.318Z,11.13
2023-05-23T12:55:33.831Z,13.00
2023-05-23T13:00:38.032Z,12.97
2023-05-23T13:15:51.117Z,10.93
2023-05-23T13:20:56.743Z,11.38
2023-05-23T13:26:00.648Z,10.32
2023-05-23T13:31:04.423Z,10.80
2023-05-23T13:36:09.636Z,11.32
2023-05-23T13:41:13.339Z,11.30
2023-05-23T13:46:16.952Z,9.93
2023-05-23T13:51:21.997Z,10.57
2023-05-23T13:56:25.745Z,11.48
2023-05-23T14:01:29.719Z,12.25
2023-05-23T14:06:34.696Z,12.25
2023-05-23T14:11:38.264Z,11.70
2023-05-23T14:16:42.070Z,11.93
2023-05-23T14:21:47.330Z,11.70
2023-05-23T14:26:51.172Z,12.30
2023-05-23T14:31:54.802Z,11.50
2023-05-23T14:37:00.135Z,11.15
2023-05-23T14:42:03.982Z,10.43
2023-05-23T14:47:08.086Z,10.02
2023-05-23T14:52:13.924Z,9.13
2023-05-23T14:57:17.532Z,9.20
2023-05-23T15:02:21.138Z,9.23
2023-05-23T15:07:26.282Z,9.20
2023-05-23T15:12:30.315Z,10.25
2023-05-23T15:17:34.762Z,10.68
2023-05-23T15:22:40.425Z,10.00
2023-05-23T15:27:45.114Z,10.68
2023-05-23T15:32:49.356Z,9.25
2023-05-23T15:37:54.398Z,10.50
2023-05-23T15:42:57.967Z,10.43
2023-05-23T15:48:01.562Z,9.70
2023-05-23T15:53:06.586Z,9.38
2023-05-23T15:58:10.775Z,9.23
2023-05-23T16:08:19.062Z,9.52
2023-05-23T16:13:22.598Z,9.55
2023-05-23T16:18:26.214Z,9.57
2023-05-23T16:23:33.136Z,9.48
2023-05-23T16:28:36.604Z,9.90
2023-05-23T16:33:40.117Z,9.43
2023-05-23T16:38:45.068Z,9.83
2023-05-23T16:43:48.559Z,9.75
2023-05-23T16:48:52.175Z,9.97
2023-05-23T16:53:57.137Z,9.55
2023-05-23T16:59:00.991Z,9.32
2023-05-23T17:04:05.780Z,9.48
2023-05-23T17:09:10.798Z,8.93
2023-05-23T17:14:14.540Z,9.63
2023-05-23T17:19:18.162Z,9.90
2023-05-23T17:24:23.215Z,9.70
2023-05-23T17:29:27.325Z,10.45
2023-05-23T17:34:30.884Z,10.52
2023-05-23T17:39:36.061Z,11.15
2023-05-23T17:44:40.621Z,10.90
2023-05-23T17:49:44.148Z,10.23
2023-05-23T17:54:49.080Z,11.87
2023-05-23T17:59:52.663Z,11.45
2023-05-23T18:04:56.728Z,11.20
2023-05-23T18:10:01.869Z,12.05
2023-05-23T18:15:06.659Z,12.63
2023-05-23T18:20:11.221Z,12.23
2023-05-23T18:25:19.705Z,12.70
2023-05-23T18:30:24.763Z,11.43
2023-05-23T18:35:28.320Z,12.67
2023-05-23T18:40:33.562Z,12.07
2023-05-23T18:45:37.176Z,10.55
2023-05-23T18:50:42.854Z,11.13
2023-05-23T18:55:48.049Z,10.20
2023-05-23T19:00:51.924Z,9.68
2023-05-23T19:05:59.677Z,9.65
2023-05-23T19:11:04.962Z,9.50
2023-05-23T19:16:08.630Z,8.63
2023-05-23T19:21:13.009Z,8.17
2023-05-23T19:31:23.980Z,7.57
2023-05-23T19:36:27.566Z,7.83
2023-05-23T19:41:32.887Z,7.87
2023-05-23T19:46:36.571Z,7.53
2023-05-23T19:51:40.281Z,6.75
2023-05-23T19:56:45.783Z,7.07
2023-05-23T20:01:49.552Z,6.72
2023-05-23T20:06:53.960Z,6.30
2023-05-23T20:17:02.085Z,5.43
2023-05-23T20:22:05.745Z,5.80
2023-05-23T20:27:10.729Z,5.40
2023-05-23T20:32:14.325Z,5.97
2023-05-23T20:37:17.888Z,5.83
2023-05-23T20:42:22.869Z,5.27
2023-05-23T20:47:27.057Z,4.72
2023-05-23T20:52:30.825Z,5.57
2023-05-23T20:57:37.258Z,5.97
2023-05-23T21:02:41.124Z,5.00
2023-05-23T21:07:45.242Z,5.28
2023-05-23T21:12:51.060Z,5.40
2023-05-23T21:17:54.952Z,5.32
2023-05-23T21:22:58.755Z,5.35
2023-05-23T21:28:03.771Z,5.32
2023-05-23T21:33:08.122Z,5.43
2023-05-23T21:38:11.849Z,5.80
2023-05-23T21:43:16.811Z,5.60
2023-05-23T21:48:20.310Z,5.32
2023-05-23T21:53:23.862Z,6.17
2023-05-23T21:58:28.874Z,6.57
2023-05-23T22:03:32.544Z,5.70
2023-05-23T22:08:36.277Z,6.55
2023-05-23T22:13:41.557Z,6.53
2023-05-23T22:23:52.541Z,7.10
2023-05-23T22:28:57.464Z,6.17
2023-05-23T22:34:01.040Z,6.60
2023-05-23T22:39:05.730Z,6.80
2023-05-23T22:44:10.862Z,7.32
2023-05-23T22:49:15.559Z,7.25
2023-05-23T22:54:19.221Z,6.40
2023-05-23T22:59:24.174Z,6.60
2023-05-23T23:04:31.073Z,6.80
2023-05-23T23:09:34.682Z,6.47
2023-05-23T23:14:39.697Z,7.50
2023-05-23T23:19:43.292Z,7.40
2023-05-23T23:24:47.679Z,8.03
2023-05-23T23:29:52.717Z,7.45
2023-05-23T23:34:56.287Z,8.05
2023-05-23T23:40:00.392Z,8.27
2023-05-23T23:45:06.044Z,9.00
2023-05-23T23:50:13.708Z,8.73
2023-05-23T23:55:17.261Z,9.15
